createdAt,value
2022-12-17T00:01:00.775Z,20.03
2022-12-17T00:04:21.063Z,23.83
2022-12-17T00:07:41.315Z,23.33
2022-12-17T00:11:01.715Z,22.10
2022-12-17T00:14:22.141Z,20.53
2022-12-17T00:17:42.626Z,18.30
2022-12-17T00:21:03.048Z,20.47
2022-12-17T00:24:23.704Z,21.30
2022-12-17T00:27:44.174Z,22.13
2022-12-17T00:31:10.709Z,24.17
2022-12-17T00:34:31.102Z,21.60
2022-12-17T00:37:51.498Z,23.20
2022-12-17T00:41:12.434Z,19.80
2022-12-17T00:44:34.808Z,19.53
2022-12-17T00:47:55.234Z,17.43
2022-12-17T00:51:17.415Z,25.37
2022-12-17T00:54:37.836Z,25.40
2022-12-17T00:57:58.291Z,20.27
2022-12-17T01:01:20.944Z,24.33
2022-12-17T01:08:16.131Z,23.30
2022-12-17T01:11:36.647Z,19.57
2022-12-17T01:14:57.217Z,20.63
2022-12-17T01:18:17.732Z,21.43
2022-12-17T01:21:38.017Z,20.63
2022-12-17T01:24:58.392Z,19.93
2022-12-17T01:28:18.816Z,25.80
2022-12-17T01:31:39.288Z,23.80
2022-12-17T01:34:59.439Z,23.07
2022-12-17T01:38:19.927Z,20.97
2022-12-17T01:41:40.370Z,23.67
2022-12-17T01:45:00.842Z,20.67
2022-12-17T01:48:24.139Z,17.73
2022-12-17T01:51:46.171Z,21.93
2022-12-17T01:55:08.519Z,21.80
2022-12-17T01:58:29.780Z,17.40
2022-12-17T02:01:50.577Z,17.10
2022-12-17T02:05:24.521Z,19.27
2022-12-17T02:08:59.646Z,29.47
2022-12-17T02:12:39.830Z,20.63
2022-12-17T02:16:04.900Z,20.07
2022-12-17T02:19:49.636Z,19.70
2022-12-17T02:23:34.441Z,22.07
2022-12-17T02:27:03.861Z,24.10
2022-12-17T02:30:26.995Z,23.43
2022-12-17T02:33:47.497Z,26.93
2022-12-17T02:37:07.873Z,20.13
2022-12-17T02:40:34.927Z,24.93
2022-12-17T02:43:55.297Z,27.40
2022-12-17T02:47:18.157Z,19.83
2022-12-17T02:50:38.477Z,22.27
2022-12-17T02:54:05.505Z,25.17
2022-12-17T02:57:25.814Z,23.57
2022-12-17T03:00:48.656Z,21.53
2022-12-17T03:04:12.018Z,22.07
2022-12-17T03:07:32.286Z,19.87
2022-12-17T03:10:52.816Z,19.13
2022-12-17T03:14:15.864Z,24.80
2022-12-17T03:17:36.408Z,20.50
2022-12-17T03:20:56.844Z,24.23
2022-12-17T03:24:17.354Z,21.77
2022-12-17T03:27:37.648Z,19.20
2022-12-17T03:30:58.113Z,16.97
2022-12-17T03:34:18.633Z,21.97
2022-12-17T03:37:39.004Z,17.67
2022-12-17T03:41:06.225Z,17.03
2022-12-17T03:44:26.739Z,17.03
2022-12-17T03:47:47.253Z,20.77
2022-12-17T03:51:28.083Z,18.87
2022-12-17T03:54:48.687Z,23.57
2022-12-17T03:58:08.929Z,16.07
2022-12-17T04:01:29.551Z,17.50
2022-12-17T04:04:49.925Z,15.20
2022-12-17T04:08:10.393Z,23.07
2022-12-17T04:11:30.922Z,17.53
2022-12-17T04:14:54.540Z,15.83
2022-12-17T04:18:15.091Z,15.40
2022-12-17T04:21:35.504Z,17.70
2022-12-17T04:24:56.018Z,14.70
2022-12-17T04:28:16.497Z,14.10
2022-12-17T04:31:37.106Z,21.03
2022-12-17T04:34:57.222Z,16.87
2022-12-17T04:38:17.621Z,16.57
2022-12-17T04:41:38.098Z,17.77
2022-12-17T04:45:04.471Z,19.87
2022-12-17T04:48:26.464Z,13.43
2022-12-17T04:51:48.339Z,16.13
2022-12-17T04:59:14.847Z,16.80
2022-12-17T05:02:42.469Z,12.00
2022-12-17T05:06:05.869Z,20.83
2022-12-17T05:09:26.326Z,17.33
2022-12-17T05:12:46.732Z,20.60
2022-12-17T05:16:07.522Z,19.00
2022-12-17T05:19:48.385Z,18.90
2022-12-17T05:23:08.659Z,16.40
2022-12-17T05:26:55.373Z,11.90
2022-12-17T05:30:17.372Z,13.53
2022-12-17T05:33:40.424Z,12.63
2022-12-17T05:37:00.912Z,14.30
2022-12-17T05:40:34.604Z,15.03
2022-12-17T05:43:55.066Z,12.67
2022-12-17T05:47:15.629Z,12.03
2022-12-17T05:50:38.014Z,11.10
2022-12-17T05:53:58.468Z,11.63
2022-12-17T05:57:18.868Z,12.00
2022-12-17T06:00:39.236Z,12.77
2022-12-17T06:04:00.421Z,11.07
2022-12-17T06:07:49.773Z,12.00
2022-12-17T06:11:10.428Z,9.93
2022-12-17T06:14:32.854Z,12.77
2022-12-17T06:17:53.283Z,11.57
2022-12-17T06:21:30.518Z,10.13
2022-12-17T06:24:50.855Z,10.17
2022-12-17T06:28:19.083Z,12.80
2022-12-17T06:31:39.504Z,12.60
2022-12-17T06:34:59.779Z,8.83
2022-12-17T06:38:23.662Z,11.27
2022-12-17T06:41:44.102Z,11.40
2022-12-17T06:45:07.222Z,14.07
2022-12-17T06:48:27.721Z,12.30
2022-12-17T06:51:48.087Z,13.50
2022-12-17T06:55:10.114Z,12.80
2022-12-17T06:58:30.636Z,11.60
2022-12-17T07:01:51.275Z,10.00
2022-12-17T07:05:11.653Z,13.73
2022-12-17T07:08:32.229Z,16.33
2022-12-17T07:11:52.693Z,10.80
2022-12-17T07:15:13.095Z,11.53
2022-12-17T07:18:33.487Z,12.53
2022-12-17T07:21:53.937Z,10.33
2022-12-17T07:25:14.515Z,10.63
2022-12-17T07:28:35.062Z,10.33
2022-12-17T07:31:57.652Z,12.90
2022-12-17T07:35:17.874Z,11.70
2022-12-17T07:38:38.251Z,14.63
2022-12-17T07:41:58.750Z,10.33
2022-12-17T07:45:19.192Z,12.90
2022-12-17T07:48:39.859Z,16.13
2022-12-17T07:52:00.397Z,11.93
2022-12-17T07:55:20.663Z,10.07
2022-12-17T07:58:51.632Z,11.33
2022-12-17T08:02:12.553Z,14.47
2022-12-17T08:05:33.354Z,16.17
2022-12-17T08:08:53.826Z,14.43
2022-12-17T08:12:15.314Z,14.00
2022-12-17T08:15:35.916Z,12.87
2022-12-17T08:18:56.322Z,14.50
2022-12-17T08:22:16.781Z,15.23
2022-12-17T08:25:40.521Z,16.43
2022-12-17T08:29:00.810Z,13.27
2022-12-17T08:32:24.342Z,14.23
2022-12-17T08:35:44.962Z,17.50
2022-12-17T08:39:05.380Z,14.73
2022-12-17T08:42:25.768Z,10.77
2022-12-17T08:45:46.393Z,9.17
2022-12-17T08:49:06.895Z,10.03
2022-12-17T08:52:27.474Z,9.23
2022-12-17T08:55:50.108Z,9.33
2022-12-17T08:59:10.740Z,12.53
2022-12-17T09:02:31.345Z,12.80
2022-12-17T09:05:51.633Z,11.73
2022-12-17T09:09:12.016Z,12.97
2022-12-17T09:12:35.027Z,15.83
2022-12-17T09:15:55.411Z,12.63
2022-12-17T09:19:15.896Z,12.70
2022-12-17T09:22:36.475Z,11.83
2022-12-17T09:25:58.245Z,13.20
2022-12-17T09:29:18.860Z,14.00
2022-12-17T09:32:39.359Z,11.33
2022-12-17T09:36:16.623Z,9.63
2022-12-17T09:39:37.099Z,8.53
2022-12-17T09:43:08.130Z,11.00
2022-12-17T09:46:34.670Z,8.43
2022-12-17T09:49:56.053Z,8.70
2022-12-17T09:53:21.468Z,7.43
2022-12-17T09:56:45.074Z,9.33
2022-12-17T10:00:05.339Z,8.93
2022-12-17T10:03:36.445Z,7.80
2022-12-17T10:06:57.022Z,6.80
2022-12-17T10:10:25.543Z,9.87
2022-12-17T10:13:45.948Z,15.40
2022-12-17T10:17:12.028Z,7.43
2022-12-17T10:20:56.940Z,8.13
2022-12-17T10:24:27.519Z,6.90
2022-12-17T10:27:48.828Z,14.80
2022-12-17T10:31:09.465Z,18.83
2022-12-17T10:34:36.369Z,17.87
2022-12-17T10:37:56.843Z,18.07
2022-12-17T10:41:17.459Z,19.47
2022-12-17T10:44:53.000Z,18.90
2022-12-17T10:48:13.269Z,14.47
2022-12-17T10:51:46.493Z,13.27
2022-12-17T10:55:19.642Z,14.93
2022-12-17T10:58:46.872Z,13.73
2022-12-17T11:02:07.577Z,18.33
2022-12-17T11:05:40.926Z,11.90
2022-12-17T11:13:08.948Z,12.13
2022-12-17T11:16:40.440Z,15.07
2022-12-17T11:20:15.201Z,16.93
2022-12-17T11:23:38.154Z,13.03
2022-12-17T11:27:03.826Z,13.10
2022-12-17T11:30:34.909Z,12.90
2022-12-17T11:34:08.157Z,15.73
2022-12-17T11:37:44.940Z,15.03
2022-12-17T11:41:14.236Z,15.10
2022-12-17T11:44:54.497Z,16.60
2022-12-17T11:48:30.270Z,15.73
2022-12-17T11:52:02.422Z,15.23
2022-12-17T11:55:42.210Z,16.70
2022-12-17T11:59:10.354Z,16.17
2022-12-17T12:02:48.799Z,14.77
2022-12-17T12:06:35.523Z,14.90
2022-12-17T12:10:14.670Z,10.97
2022-12-17T12:13:48.802Z,11.73
2022-12-17T12:17:20.823Z,11.63
2022-12-17T12:20:57.494Z,11.57
2022-12-17T12:24:53.266Z,12.73
2022-12-17T12:28:32.615Z,13.70
2022-12-17T12:32:31.497Z,17.80
2022-12-17T12:36:32.218Z,20.40
2022-12-17T12:40:23.500Z,18.27
2022-12-17T12:43:53.980Z,16.10
2022-12-17T12:47:27.677Z,16.80
2022-12-17T12:51:10.145Z,13.77
2022-12-17T12:54:41.873Z,13.43
2022-12-17T12:58:14.076Z,12.70
2022-12-17T13:01:35.140Z,16.03
2022-12-17T13:04:55.730Z,15.17
2022-12-17T13:08:20.384Z,15.17
2022-12-17T13:11:30.272Z,17.07
2022-12-17T13:14:34.896Z,12.97
2022-12-17T13:18:07.105Z,15.23
2022-12-17T13:21:26.900Z,12.27
2022-12-17T13:24:28.499Z,12.23
2022-12-17T13:27:31.543Z,13.33
2022-12-17T13:30:38.893Z,12.73
2022-12-17T13:34:01.896Z,12.90
2022-12-17T13:37:25.985Z,13.00
2022-12-17T13:40:46.664Z,11.33
2022-12-17T13:43:54.206Z,13.37
2022-12-17T13:46:56.362Z,10.57
2022-12-17T13:53:22.124Z,13.83
2022-12-17T13:56:26.518Z,10.43
2022-12-17T13:59:29.795Z,10.30
2022-12-17T14:02:39.353Z,10.17
2022-12-17T14:05:44.403Z,10.17
2022-12-17T14:08:47.760Z,12.10
2022-12-17T14:12:08.953Z,16.37
2022-12-17T14:15:28.230Z,12.67
2022-12-17T14:18:30.013Z,9.40
2022-12-17T14:21:31.813Z,13.53
2022-12-17T14:24:33.603Z,11.83
2022-12-17T14:27:36.513Z,12.17
2022-12-17T14:31:17.150Z,12.40
2022-12-17T14:34:11.464Z,10.63
2022-12-17T14:37:19.688Z,11.77
2022-12-17T14:40:25.493Z,12.37
2022-12-17T14:43:32.434Z,13.43
2022-12-17T14:46:35.182Z,17.83
2022-12-17T14:49:50.906Z,13.23
2022-12-17T14:52:59.631Z,15.60
2022-12-17T14:56:01.264Z,14.47
2022-12-17T14:59:02.984Z,10.53
2022-12-17T15:02:11.694Z,12.20
2022-12-17T15:05:15.721Z,13.17
2022-12-17T15:08:19.401Z,10.70
2022-12-17T15:11:22.471Z,9.53
2022-12-17T15:14:24.101Z,11.73
2022-12-17T15:17:25.816Z,9.20
2022-12-17T15:20:29.438Z,13.07
2022-12-17T15:23:31.717Z,11.10
2022-12-17T15:26:33.375Z,11.70
2022-12-17T15:29:35.043Z,15.67
2022-12-17T15:32:36.708Z,13.17
2022-12-17T15:35:39.025Z,11.90
2022-12-17T15:38:41.727Z,11.30
2022-12-17T15:42:02.267Z,12.97
2022-12-17T15:45:04.220Z,10.80
2022-12-17T15:48:06.122Z,9.10
2022-12-17T15:51:07.968Z,8.17
2022-12-17T15:54:09.618Z,5.67
2022-12-17T15:57:18.252Z,6.30
2022-12-17T16:00:20.442Z,5.97
2022-12-17T16:03:22.277Z,5.93
2022-12-17T16:06:24.140Z,4.53
2022-12-17T16:09:27.055Z,4.77
2022-12-17T16:12:28.847Z,4.90
2022-12-17T16:15:35.383Z,5.80
2022-12-17T16:18:38.729Z,5.47
2022-12-17T16:21:46.348Z,3.33
2022-12-17T16:24:48.848Z,3.57
2022-12-17T16:27:50.523Z,3.47
2022-12-17T16:31:10.292Z,4.33
2022-12-17T16:34:13.360Z,3.43
2022-12-17T16:37:15.077Z,4.77
2022-12-17T16:40:16.819Z,2.77
2022-12-17T16:43:53.739Z,2.93
2022-12-17T16:46:55.436Z,5.93
2022-12-17T16:49:57.499Z,3.37
2022-12-17T16:52:59.154Z,4.03
2022-12-17T16:56:02.429Z,2.07
2022-12-17T16:59:05.421Z,2.93
2022-12-17T17:02:15.976Z,2.80
2022-12-17T17:05:17.830Z,3.27
2022-12-17T17:08:19.545Z,3.43
2022-12-17T17:11:26.178Z,3.13
2022-12-17T17:14:50.482Z,2.60
2022-12-17T17:17:55.554Z,3.00
2022-12-17T17:21:20.142Z,3.57
2022-12-17T17:24:24.198Z,3.17
2022-12-17T17:27:26.063Z,2.67
2022-12-17T17:30:27.807Z,2.30
2022-12-17T17:33:35.283Z,2.33
2022-12-17T17:36:37.368Z,5.70
2022-12-17T17:39:39.135Z,3.53
2022-12-17T17:42:46.141Z,3.07
2022-12-17T17:46:04.458Z,4.17
2022-12-17T17:49:09.023Z,2.20
2022-12-17T17:52:11.560Z,1.83
2022-12-17T17:55:14.074Z,2.50
2022-12-17T17:58:15.775Z,3.17
2022-12-17T18:01:42.149Z,2.57
2022-12-17T18:04:46.624Z,4.13
2022-12-17T18:07:48.357Z,3.00
2022-12-17T18:10:58.006Z,3.03
2022-12-17T18:14:01.912Z,2.47
2022-12-17T18:17:03.557Z,3.10
2022-12-17T18:20:05.937Z,2.23
2022-12-17T18:23:07.707Z,4.07
2022-12-17T18:26:19.303Z,3.13
2022-12-17T18:29:24.816Z,3.07
2022-12-17T18:32:26.462Z,3.97
2022-12-17T18:35:28.275Z,2.97
2022-12-17T18:38:29.982Z,8.27
2022-12-17T18:41:56.034Z,8.73
2022-12-17T18:44:57.863Z,6.50
2022-12-17T18:47:59.601Z,4.30
2022-12-17T18:51:05.689Z,6.30
2022-12-17T18:54:14.973Z,5.10
2022-12-17T18:57:16.817Z,8.00
2022-12-17T19:00:18.694Z,6.03
2022-12-17T19:03:20.419Z,6.90
2022-12-17T19:06:24.439Z,6.23
2022-12-17T19:09:31.259Z,4.53
2022-12-17T19:12:33.124Z,4.57
2022-12-17T19:15:35.876Z,6.47
2022-12-17T19:18:39.031Z,6.07
2022-12-17T19:21:41.411Z,5.33
2022-12-17T19:24:43.103Z,3.80
2022-12-17T19:27:44.806Z,3.17
2022-12-17T19:30:46.428Z,4.90
2022-12-17T19:33:48.810Z,4.07
2022-12-17T19:36:50.593Z,5.43
2022-12-17T19:39:52.313Z,4.13
2022-12-17T19:42:57.581Z,3.77
2022-12-17T19:46:07.793Z,3.97
2022-12-17T19:49:14.534Z,2.93
2022-12-17T19:52:16.305Z,3.90
2022-12-17T19:55:24.218Z,4.90
2022-12-17T19:58:25.846Z,3.23
2022-12-17T20:01:33.013Z,3.17
2022-12-17T20:04:35.298Z,4.70
2022-12-17T20:07:39.982Z,3.57
2022-12-17T20:10:41.657Z,3.37
2022-12-17T20:13:48.733Z,2.77
2022-12-17T20:16:58.489Z,3.27
2022-12-17T20:20:00.286Z,3.77
2022-12-17T20:23:02.012Z,4.97
2022-12-17T20:26:05.781Z,4.07
2022-12-17T20:29:08.506Z,4.53
2022-12-17T20:32:10.343Z,3.80
2022-12-17T20:35:12.145Z,4.03
2022-12-17T20:38:13.997Z,5.50
2022-12-17T20:41:18.656Z,5.43
2022-12-17T20:44:20.541Z,4.13
2022-12-17T20:47:22.381Z,4.00
2022-12-17T20:50:24.193Z,4.47
2022-12-17T20:53:26.516Z,4.03
2022-12-17T20:56:30.869Z,4.47
2022-12-17T20:59:32.789Z,4.53
2022-12-17T21:02:34.644Z,4.97
2022-12-17T21:05:36.570Z,6.47
2022-12-17T21:08:43.353Z,5.20
2022-12-17T21:11:48.454Z,5.70
2022-12-17T21:14:50.178Z,5.00
2022-12-17T21:17:51.953Z,5.30
2022-12-17T21:21:05.296Z,6.23
2022-12-17T21:24:08.194Z,4.50
2022-12-17T21:27:14.763Z,5.03
2022-12-17T21:30:17.120Z,4.50
2022-12-17T21:33:19.023Z,5.63
2022-12-17T21:36:22.193Z,5.40
2022-12-17T21:39:23.999Z,4.93
2022-12-17T21:42:44.194Z,3.83
2022-12-17T21:45:46.102Z,4.87
2022-12-17T21:48:48.067Z,6.57
2022-12-17T21:51:53.159Z,4.53
2022-12-17T21:54:54.865Z,5.90
2022-12-17T21:57:59.565Z,6.10
2022-12-17T22:01:25.418Z,5.77
2022-12-17T22:04:27.411Z,4.83
2022-12-17T22:07:30.849Z,5.43
2022-12-17T22:10:45.499Z,5.23
2022-12-17T22:14:07.419Z,5.13
2022-12-17T22:17:16.298Z,4.20
2022-12-17T22:20:18.165Z,4.63
2022-12-17T22:23:19.855Z,5.03
2022-12-17T22:26:21.938Z,5.97
2022-12-17T22:29:42.204Z,5.47
2022-12-17T22:33:06.036Z,3.67
2022-12-17T22:38:27.016Z,6.57
2022-12-17T22:44:31.157Z,4.93
2022-12-17T22:44:40.882Z,5.60
2022-12-17T22:46:56.873Z,5.07
2022-12-17T22:49:58.546Z,5.67
2022-12-17T22:53:01.169Z,6.90
2022-12-17T22:56:14.584Z,5.63
2022-12-17T22:59:28.514Z,5.33
2022-12-17T23:02:30.281Z,6.60
2022-12-17T23:05:32.781Z,5.40
2022-12-17T23:08:34.926Z,6.67
2022-12-17T23:11:36.707Z,5.73
2022-12-17T23:14:38.427Z,4.97
2022-12-17T23:17:40.166Z,6.43
2022-12-17T23:20:41.851Z,7.73
2022-12-17T23:23:43.600Z,5.03
2022-12-17T23:26:45.284Z,5.97
2022-12-17T23:29:47.074Z,5.27
2022-12-17T23:32:48.766Z,6.37
2022-12-17T23:35:50.785Z,8.70
2022-12-17T23:38:55.239Z,5.60
2022-12-17T23:41:57.035Z,6.00
2022-12-17T23:44:58.782Z,6.57
2022-12-17T23:48:00.510Z,5.83
2022-12-17T23:51:02.660Z,6.93
2022-12-17T23:54:04.505Z,7.63
2022-12-17T23:57:06.198Z,5.17
